sensor_id;sensor_type;location;lat;lon;timestamp;temperature;humidity
4052;DHT22;2040;50.924;11.604;2023-07-31T00:01:28;16.10;99.90
4052;DHT22;2040;50.924;11.604;2023-07-31T00:03:54;16.00;99.90
4052;DHT22;2040;50.924;11.604;2023-07-31T00:06:19;16.00;99.90
4052;DHT22;2040;50.924;11.604;2023-07-31T00:08:45;16.00;99.90
4052;DHT22;2040;50.924;11.604;2023-07-31T00:11:10;16.00;99.90
4052;DHT22;2040;50.924;11.604;2023-07-31T00:13:36;16.00;99.90
4052;DHT22;2040;50.924;11.604;2023-07-31T00:16:02;16.00;99.90
4052;DHT22;2040;50.924;11.604;2023-07-31T00:18:27;16.10;99.90
4052;DHT22;2040;50.924;11.604;2023-07-31T00:20:53;16.10;99.90
4052;DHT22;2040;50.924;11.604;2023-07-31T00:23:18;16.10;99.90
4052;DHT22;2040;50.924;11.604;2023-07-31T00:25:44;16.10;99.90
4052;DHT22;2040;50.924;11.604;2023-07-31T00:28:10;16.10;99.90
4052;DHT22;2040;50.924;11.604;2023-07-31T00:30:35;16.20;99.90
4052;DHT22;2040;50.924;11.604;2023-07-31T00:33:01;16.20;99.90
4052;DHT22;2040;50.924;11.604;2023-07-31T00:35:26;16.20;99.90
4052;DHT22;2040;50.924;11.604;2023-07-31T00:37:52;16.20;99.90
4052;DHT22;2040;50.924;11.604;2023-07-31T00:40:17;16.20;99.90
4052;DHT22;2040;50.924;11.604;2023-07-31T00:42:43;16.20;99.90
4052;DHT22;2040;50.924;11.604;2023-07-31T00:45:09;16.10;99.90
4052;DHT22;2040;50.924;11.604;2023-07-31T00:47:34;16.10;99.90
4052;DHT22;2040;50.924;11.604;2023-07-31T00:50:00;16.10;99.90
4052;DHT22;2040;50.924;11.604;2023-07-31T00:52:26;16.20;99.90
4052;DHT22;2040;50.924;11.604;2023-07-31T00:54:52;16.10;99.90
4052;DHT22;2040;50.924;11.604;2023-07-31T00:57:17;16.00;99.90
4052;DHT22;2040;50.924;11.604;2023-07-31T00:59:43;15.80;99.90
4052;DHT22;2040;50.924;11.604;2023-07-31T01:02:08;15.80;99.90
4052;DHT22;2040;50.924;11.604;2023-07-31T01:04:34;15.70;99.90
4052;DHT22;2040;50.924;11.604;2023-07-31T01:09:43;15.60;99.90
4052;DHT22;2040;50.924;11.604;2023-07-31T01:12:14;15.50;99.90
4052;DHT22;2040;50.924;11.604;2023-07-31T01:14:39;15.50;99.90
4052;DHT22;2040;50.924;11.604;2023-07-31T01:17:05;15.40;99.90
4052;DHT22;2040;50.924;11.604;2023-07-31T01:19:31;15.30;99.90
4052;DHT22;2040;50.924;11.604;2023-07-31T01:22:18;15.20;99.90
4052;DHT22;2040;50.924;11.604;2023-07-31T01:27:35;15.20;99.90
4052;DHT22;2040;50.924;11.604;2023-07-31T01:30:15;15.10;99.90
4052;DHT22;2040;50.924;11.604;2023-07-31T01:32:43;15.10;99.90
4052;DHT22;2040;50.924;11.604;2023-07-31T01:35:09;15.20;99.90
4052;DHT22;2040;50.924;11.604;2023-07-31T01:37:35;15.20;99.90
4052;DHT22;2040;50.924;11.604;2023-07-31T01:40:01;15.20;99.90
4052;DHT22;2040;50.924;11.604;2023-07-31T01:42:26;15.30;99.90
4052;DHT22;2040;50.924;11.604;2023-07-31T01:44:52;15.30;99.90
4052;DHT22;2040;50.924;11.604;2023-07-31T01:47:18;15.30;99.90
4052;DHT22;2040;50.924;11.604;2023-07-31T01:49:43;15.30;99.90
4052;DHT22;2040;50.924;11.604;2023-07-31T01:52:09;15.30;99.90
4052;DHT22;2040;50.924;11.604;2023-07-31T01:54:34;15.40;99.90
4052;DHT22;2040;50.924;11.604;2023-07-31T01:57:02;15.40;99.90
4052;DHT22;2040;50.924;11.604;2023-07-31T01:59:27;15.40;99.90
4052;DHT22;2040;50.924;11.604;2023-07-31T02:01:54;15.40;99.90
4052;DHT22;2040;50.924;11.604;2023-07-31T02:04:20;15.40;99.90
4052;DHT22;2040;50.924;11.604;2023-07-31T02:06:45;15.40;99.90
4052;DHT22;2040;50.924;11.604;2023-07-31T02:09:11;15.40;99.90
4052;DHT22;2040;50.924;11.604;2023-07-31T02:11:36;15.40;99.90
4052;DHT22;2040;50.924;11.604;2023-07-31T02:14:02;15.40;99.90
4052;DHT22;2040;50.924;11.604;2023-07-31T02:16:27;15.50;99.90
4052;DHT22;2040;50.924;11.604;2023-07-31T02:18:53;15.50;99.90
4052;DHT22;2040;50.924;11.604;2023-07-31T02:21:19;15.50;99.90
4052;DHT22;2040;50.924;11.604;2023-07-31T02:23:44;15.50;99.90
4052;DHT22;2040;50.924;11.604;2023-07-31T02:26:11;15.40;99.90
4052;DHT22;2040;50.924;11.604;2023-07-31T02:28:36;15.40;99.90
4052;DHT22;2040;50.924;11.604;2023-07-31T02:31:02;15.40;99.90
4052;DHT22;2040;50.924;11.604;2023-07-31T02:33:28;15.40;99.90
4052;DHT22;2040;50.924;11.604;2023-07-31T02:35:53;15.40;99.90
4052;DHT22;2040;50.924;11.604;2023-07-31T02:38:19;15.40;99.90
4052;DHT22;2040;50.924;11.604;2023-07-31T02:40:45;15.50;99.90
4052;DHT22;2040;50.924;11.604;2023-07-31T02:43:10;15.40;99.90
4052;DHT22;2040;50.924;11.604;2023-07-31T02:45:36;15.30;99.90
4052;DHT22;2040;50.924;11.604;2023-07-31T02:48:02;15.20;99.90
4052;DHT22;2040;50.924;11.604;2023-07-31T02:50:27;15.10;99.90
4052;DHT22;2040;50.924;11.604;2023-07-31T02:52:54;15.00;99.90
4052;DHT22;2040;50.924;11.604;2023-07-31T02:55:19;15.00;99.90
4052;DHT22;2040;50.924;11.604;2023-07-31T02:57:45;14.90;99.90
4052;DHT22;2040;50.924;11.604;2023-07-31T03:00:10;14.80;99.90
4052;DHT22;2040;50.924;11.604;2023-07-31T03:02:36;14.80;99.90
4052;DHT22;2040;50.924;11.604;2023-07-31T03:05:02;14.70;99.90
4052;DHT22;2040;50.924;11.604;2023-07-31T03:07:27;14.70;99.90
4052;DHT22;2040;50.924;11.604;2023-07-31T03:09:54;14.60;99.90
4052;DHT22;2040;50.924;11.604;2023-07-31T03:12:19;14.50;99.90
4052;DHT22;2040;50.924;11.604;2023-07-31T03:14:45;14.50;99.90
4052;DHT22;2040;50.924;11.604;2023-07-31T03:17:10;14.50;99.90
4052;DHT22;2040;50.924;11.604;2023-07-31T03:19:36;14.40;99.90
4052;DHT22;2040;50.924;11.604;2023-07-31T03:22:01;14.40;99.90
4052;DHT22;2040;50.924;11.604;2023-07-31T03:24:28;14.40;99.90
4052;DHT22;2040;50.924;11.604;2023-07-31T03:26:54;14.40;99.90
4052;DHT22;2040;50.924;11.604;2023-07-31T03:29:19;14.40;99.90
4052;DHT22;2040;50.924;11.604;2023-07-31T03:31:45;14.30;99.90
4052;DHT22;2040;50.924;11.604;2023-07-31T03:34:10;14.30;99.90
4052;DHT22;2040;50.924;11.604;2023-07-31T03:36:36;14.30;99.90
4052;DHT22;2040;50.924;11.604;2023-07-31T03:39:02;14.30;99.90
4052;DHT22;2040;50.924;11.604;2023-07-31T03:41:27;14.20;99.90
4052;DHT22;2040;50.924;11.604;2023-07-31T03:43:53;14.20;99.90
4052;DHT22;2040;50.924;11.604;2023-07-31T03:46:19;14.20;99.90
4052;DHT22;2040;50.924;11.604;2023-07-31T03:48:45;14.20;99.90
4052;DHT22;2040;50.924;11.604;2023-07-31T03:51:10;14.20;99.90
4052;DHT22;2040;50.924;11.604;2023-07-31T03:53:36;14.10;99.90
4052;DHT22;2040;50.924;11.604;2023-07-31T03:56:01;14.20;99.90
4052;DHT22;2040;50.924;11.604;2023-07-31T03:58:27;14.20;99.90
4052;DHT22;2040;50.924;11.604;2023-07-31T04:00:52;14.10;99.90
4052;DHT22;2040;50.924;11.604;2023-07-31T04:03:18;14.10;99.90
4052;DHT22;2040;50.924;11.604;2023-07-31T04:05:44;14.20;99.90
4052;DHT22;2040;50.924;11.604;2023-07-31T04:08:09;14.20;99.90
4052;DHT22;2040;50.924;11.604;2023-07-31T04:10:35;14.20;99.90
4052;DHT22;2040;50.924;11.604;2023-07-31T04:13:01;14.20;99.90
4052;DHT22;2040;50.924;11.604;2023-07-31T04:15:26;14.20;99.90
4052;DHT22;2040;50.924;11.604;2023-07-31T04:17:52;14.20;99.90
4052;DHT22;2040;50.924;11.604;2023-07-31T04:20:17;14.20;99.90
4052;DHT22;2040;50.924;11.604;2023-07-31T04:22:43;14.20;99.90
4052;DHT22;2040;50.924;11.604;2023-07-31T04:25:09;14.20;99.90
4052;DHT22;2040;50.924;11.604;2023-07-31T04:27:34;14.30;99.90
4052;DHT22;2040;50.924;11.604;2023-07-31T04:30:00;14.30;99.90
4052;DHT22;2040;50.924;11.604;2023-07-31T04:32:25;14.30;99.90
4052;DHT22;2040;50.924;11.604;2023-07-31T04:34:51;14.30;99.90
4052;DHT22;2040;50.924;11.604;2023-07-31T04:37:17;14.30;99.90
4052;DHT22;2040;50.924;11.604;2023-07-31T04:39:42;14.30;99.90
4052;DHT22;2040;50.924;11.604;2023-07-31T04:42:08;14.30;99.90
4052;DHT22;2040;50.924;11.604;2023-07-31T04:44:33;14.30;99.90
4052;DHT22;2040;50.924;11.604;2023-07-31T04:46:59;14.30;99.90
4052;DHT22;2040;50.924;11.604;2023-07-31T04:49:25;14.30;99.90
4052;DHT22;2040;50.924;11.604;2023-07-31T04:51:50;14.30;99.90
4052;DHT22;2040;50.924;11.604;2023-07-31T04:54:16;14.30;99.90
4052;DHT22;2040;50.924;11.604;2023-07-31T04:56:42;14.40;99.90
4052;DHT22;2040;50.924;11.604;2023-07-31T04:59:07;14.40;99.90
4052;DHT22;2040;50.924;11.604;2023-07-31T05:01:33;14.40;99.90
4052;DHT22;2040;50.924;11.604;2023-07-31T05:03:58;14.40;99.90
4052;DHT22;2040;50.924;11.604;2023-07-31T05:06:24;14.50;99.90
4052;DHT22;2040;50.924;11.604;2023-07-31T05:08:49;14.40;99.90
4052;DHT22;2040;50.924;11.604;2023-07-31T05:11:15;14.50;99.90
4052;DHT22;2040;50.924;11.604;2023-07-31T05:13:41;14.60;99.90
4052;DHT22;2040;50.924;11.604;2023-07-31T05:16:06;14.60;99.90
4052;DHT22;2040;50.924;11.604;2023-07-31T05:18:32;14.60;99.90
4052;DHT22;2040;50.924;11.604;2023-07-31T05:20:57;14.70;99.90
4052;DHT22;2040;50.924;11.604;2023-07-31T05:23:23;14.70;99.90
4052;DHT22;2040;50.924;11.604;2023-07-31T05:25:48;14.70;99.90
4052;DHT22;2040;50.924;11.604;2023-07-31T05:28:14;14.70;99.90
4052;DHT22;2040;50.924;11.604;2023-07-31T05:30:40;14.70;99.90
4052;DHT22;2040;50.924;11.604;2023-07-31T05:33:05;14.70;99.90
4052;DHT22;2040;50.924;11.604;2023-07-31T05:35:31;14.90;99.90
4052;DHT22;2040;50.924;11.604;2023-07-31T05:37:56;14.90;99.90
4052;DHT22;2040;50.924;11.604;2023-07-31T05:40:22;14.90;99.90
4052;DHT22;2040;50.924;11.604;2023-07-31T05:42:47;14.90;99.90
4052;DHT22;2040;50.924;11.604;2023-07-31T05:45:13;15.00;99.90
4052;DHT22;2040;50.924;11.604;2023-07-31T05:47:39;15.00;99.90
4052;DHT22;2040;50.924;11.604;2023-07-31T05:50:05;15.00;99.90
4052;DHT22;2040;50.924;11.604;2023-07-31T05:52:31;15.10;99.90
4052;DHT22;2040;50.924;11.604;2023-07-31T05:54:57;15.10;99.90
4052;DHT22;2040;50.924;11.604;2023-07-31T05:57:24;15.10;99.90
4052;DHT22;2040;50.924;11.604;2023-07-31T05:59:50;15.10;99.90
4052;DHT22;2040;50.924;11.604;2023-07-31T06:02:15;15.10;99.90
4052;DHT22;2040;50.924;11.604;2023-07-31T06:04:41;15.20;99.90
4052;DHT22;2040;50.924;11.604;2023-07-31T06:07:07;15.20;99.90
4052;DHT22;2040;50.924;11.604;2023-07-31T06:09:32;15.20;99.90
4052;DHT22;2040;50.924;11.604;2023-07-31T06:11:58;15.20;99.90
4052;DHT22;2040;50.924;11.604;2023-07-31T06:14:23;15.30;99.90
4052;DHT22;2040;50.924;11.604;2023-07-31T06:16:49;15.30;99.90
4052;DHT22;2040;50.924;11.604;2023-07-31T06:19:15;15.40;99.90
4052;DHT22;2040;50.924;11.604;2023-07-31T06:21:40;15.40;99.90
4052;DHT22;2040;50.924;11.604;2023-07-31T06:24:08;15.40;99.90
4052;DHT22;2040;50.924;11.604;2023-07-31T06:26:34;15.50;99.90
4052;DHT22;2040;50.924;11.604;2023-07-31T06:29:00;15.50;99.90
4052;DHT22;2040;50.924;11.604;2023-07-31T06:31:26;15.70;99.90
4052;DHT22;2040;50.924;11.604;2023-07-31T06:33:54;15.70;99.90
4052;DHT22;2040;50.924;11.604;2023-07-31T06:36:19;15.70;99.90
4052;DHT22;2040;50.924;11.604;2023-07-31T06:38:45;15.80;99.90
4052;DHT22;2040;50.924;11.604;2023-07-31T06:41:11;15.70;99.90
4052;DHT22;2040;50.924;11.604;2023-07-31T06:43:37;15.80;99.90
4052;DHT22;2040;50.924;11.604;2023-07-31T06:46:06;15.80;99.90
4052;DHT22;2040;50.924;11.604;2023-07-31T06:48:33;15.80;99.90
4052;DHT22;2040;50.924;11.604;2023-07-31T06:50:58;15.80;99.90
4052;DHT22;2040;50.924;11.604;2023-07-31T06:53:24;15.90;99.90
4052;DHT22;2040;50.924;11.604;2023-07-31T06:55:51;15.90;99.90
4052;DHT22;2040;50.924;11.604;2023-07-31T06:58:17;15.90;99.90
4052;DHT22;2040;50.924;11.604;2023-07-31T07:00:43;16.00;99.90
4052;DHT22;2040;50.924;11.604;2023-07-31T07:03:09;15.90;99.90
4052;DHT22;2040;50.924;11.604;2023-07-31T07:05:35;16.00;99.90
4052;DHT22;2040;50.924;11.604;2023-07-31T07:08:00;16.00;99.90
4052;DHT22;2040;50.924;11.604;2023-07-31T07:10:26;16.00;99.90
4052;DHT22;2040;50.924;11.604;2023-07-31T07:12:52;16.00;99.90
4052;DHT22;2040;50.924;11.604;2023-07-31T07:15:18;16.00;99.90
4052;DHT22;2040;50.924;11.604;2023-07-31T07:17:43;16.00;99.90
4052;DHT22;2040;50.924;11.604;2023-07-31T07:20:09;16.00;99.90
4052;DHT22;2040;50.924;11.604;2023-07-31T07:22:35;16.10;99.90
4052;DHT22;2040;50.924;11.604;2023-07-31T07:25:01;16.10;99.90
4052;DHT22;2040;50.924;11.604;2023-07-31T07:27:26;16.20;99.90
4052;DHT22;2040;50.924;11.604;2023-07-31T07:29:52;16.20;99.90
4052;DHT22;2040;50.924;11.604;2023-07-31T07:32:19;16.20;99.90
4052;DHT22;2040;50.924;11.604;2023-07-31T07:34:44;16.30;99.90
4052;DHT22;2040;50.924;11.604;2023-07-31T07:37:10;16.40;99.90
4052;DHT22;2040;50.924;11.604;2023-07-31T07:39:35;16.40;99.90
4052;DHT22;2040;50.924;11.604;2023-07-31T07:42:01;16.50;99.90
4052;DHT22;2040;50.924;11.604;2023-07-31T07:44:26;16.50;99.90
4052;DHT22;2040;50.924;11.604;2023-07-31T07:46:52;16.60;99.90
4052;DHT22;2040;50.924;11.604;2023-07-31T07:49:18;16.60;99.90
4052;DHT22;2040;50.924;11.604;2023-07-31T07:51:43;16.60;99.90
4052;DHT22;2040;50.924;11.604;2023-07-31T07:54:09;16.70;99.90
4052;DHT22;2040;50.924;11.604;2023-07-31T07:56:34;16.70;99.90
4052;DHT22;2040;50.924;11.604;2023-07-31T07:59:01;16.70;99.90
4052;DHT22;2040;50.924;11.604;2023-07-31T08:01:27;16.80;99.90
4052;DHT22;2040;50.924;11.604;2023-07-31T08:03:53;16.80;99.90
4052;DHT22;2040;50.924;11.604;2023-07-31T08:06:21;16.90;99.90
4052;DHT22;2040;50.924;11.604;2023-07-31T08:08:48;16.80;99.90
4052;DHT22;2040;50.924;11.604;2023-07-31T08:11:13;16.80;99.90
4052;DHT22;2040;50.924;11.604;2023-07-31T08:13:39;16.80;99.90
4052;DHT22;2040;50.924;11.604;2023-07-31T08:16:04;16.80;99.90
4052;DHT22;2040;50.924;11.604;2023-07-31T08:18:33;16.80;99.90
4052;DHT22;2040;50.924;11.604;2023-07-31T08:20:59;16.90;99.90
4052;DHT22;2040;50.924;11.604;2023-07-31T08:23:24;17.00;99.90
4052;DHT22;2040;50.924;11.604;2023-07-31T08:25:50;17.10;99.90
4052;DHT22;2040;50.924;11.604;2023-07-31T08:28:16;17.20;99.90
4052;DHT22;2040;50.924;11.604;2023-07-31T08:30:42;17.30;99.90
4052;DHT22;2040;50.924;11.604;2023-07-31T08:33:08;17.40;99.90
4052;DHT22;2040;50.924;11.604;2023-07-31T08:35:33;17.40;99.90
4052;DHT22;2040;50.924;11.604;2023-07-31T08:37:59;17.50;99.90
4052;DHT22;2040;50.924;11.604;2023-07-31T08:40:25;17.50;99.90
4052;DHT22;2040;50.924;11.604;2023-07-31T08:42:54;17.60;99.90
4052;DHT22;2040;50.924;11.604;2023-07-31T08:45:22;17.60;99.90
4052;DHT22;2040;50.924;11.604;2023-07-31T08:47:49;17.70;99.90
4052;DHT22;2040;50.924;11.604;2023-07-31T08:50:17;17.80;99.90
4052;DHT22;2040;50.924;11.604;2023-07-31T08:52:43;17.80;99.90
4052;DHT22;2040;50.924;11.604;2023-07-31T08:55:09;17.90;99.90
4052;DHT22;2040;50.924;11.604;2023-07-31T08:57:36;18.00;99.90
4052;DHT22;2040;50.924;11.604;2023-07-31T09:00:04;18.00;99.90
4052;DHT22;2040;50.924;11.604;2023-07-31T09:02:37;17.90;99.90
4052;DHT22;2040;50.924;11.604;2023-07-31T09:05:05;17.90;99.90
4052;DHT22;2040;50.924;11.604;2023-07-31T09:07:33;17.70;99.90
4052;DHT22;2040;50.924;11.604;2023-07-31T09:10:00;17.60;99.90
4052;DHT22;2040;50.924;11.604;2023-07-31T09:12:25;17.40;99.90
4052;DHT22;2040;50.924;11.604;2023-07-31T09:14:51;17.30;99.90
4052;DHT22;2040;50.924;11.604;2023-07-31T09:17:28;17.30;99.90
4052;DHT22;2040;50.924;11.604;2023-07-31T09:19:54;17.30;99.90
4052;DHT22;2040;50.924;11.604;2023-07-31T09:22:32;17.30;99.90
4052;DHT22;2040;50.924;11.604;2023-07-31T09:28:00;17.30;99.90
4052;DHT22;2040;50.924;11.604;2023-07-31T09:30:26;17.40;99.90
4052;DHT22;2040;50.924;11.604;2023-07-31T09:33:00;17.50;99.90
4052;DHT22;2040;50.924;11.604;2023-07-31T09:35:31;17.50;99.90
4052;DHT22;2040;50.924;11.604;2023-07-31T09:37:59;17.60;99.90
4052;DHT22;2040;50.924;11.604;2023-07-31T09:40:34;17.80;99.90
4052;DHT22;2040;50.924;11.604;2023-07-31T09:43:05;18.00;99.90
4052;DHT22;2040;50.924;11.604;2023-07-31T09:45:37;18.20;99.90
4052;DHT22;2040;50.924;11.604;2023-07-31T09:48:07;18.40;99.90
4052;DHT22;2040;50.924;11.604;2023-07-31T09:50:41;18.50;99.90
4052;DHT22;2040;50.924;11.604;2023-07-31T09:53:08;18.60;99.90
4052;DHT22;2040;50.924;11.604;2023-07-31T09:55:35;18.60;99.90
4052;DHT22;2040;50.924;11.604;2023-07-31T09:58:06;18.80;99.90
4052;DHT22;2040;50.924;11.604;2023-07-31T10:00:32;19.00;99.90
4052;DHT22;2040;50.924;11.604;2023-07-31T10:03:10;19.10;99.90
4052;DHT22;2040;50.924;11.604;2023-07-31T10:05:42;19.10;99.90
4052;DHT22;2040;50.924;11.604;2023-07-31T10:08:10;19.10;99.90
4052;DHT22;2040;50.924;11.604;2023-07-31T10:10:37;19.00;99.90
4052;DHT22;2040;50.924;11.604;2023-07-31T10:13:06;19.00;99.90
4052;DHT22;2040;50.924;11.604;2023-07-31T10:15:33;19.00;99.90
4052;DHT22;2040;50.924;11.604;2023-07-31T10:18:00;19.00;99.90
4052;DHT22;2040;50.924;11.604;2023-07-31T10:20:26;19.00;99.90
4052;DHT22;2040;50.924;11.604;2023-07-31T10:22:55;19.10;99.90
4052;DHT22;2040;50.924;11.604;2023-07-31T10:25:22;19.10;99.90
4052;DHT22;2040;50.924;11.604;2023-07-31T10:27:53;19.20;99.90
4052;DHT22;2040;50.924;11.604;2023-07-31T10:30:41;19.20;99.90
4052;DHT22;2040;50.924;11.604;2023-07-31T10:33:10;19.20;99.90
4052;DHT22;2040;50.924;11.604;2023-07-31T10:35:43;19.30;99.90
4052;DHT22;2040;50.924;11.604;2023-07-31T10:38:11;19.30;99.90
4052;DHT22;2040;50.924;11.604;2023-07-31T10:40:40;19.40;99.90
4052;DHT22;2040;50.924;11.604;2023-07-31T10:43:09;19.40;99.90
4052;DHT22;2040;50.924;11.604;2023-07-31T10:45:45;19.40;99.90
4052;DHT22;2040;50.924;11.604;2023-07-31T10:48:16;19.40;99.90
4052;DHT22;2040;50.924;11.604;2023-07-31T10:50:56;19.60;99.90
4052;DHT22;2040;50.924;11.604;2023-07-31T10:53:32;19.80;99.90
4052;DHT22;2040;50.924;11.604;2023-07-31T10:56:10;19.90;99.90
4052;DHT22;2040;50.924;11.604;2023-07-31T10:58:44;20.20;99.90
4052;DHT22;2040;50.924;11.604;2023-07-31T11:01:13;20.20;99.90
4052;DHT22;2040;50.924;11.604;2023-07-31T11:03:45;20.00;99.90
4052;DHT22;2040;50.924;11.604;2023-07-31T11:06:12;19.90;99.90
4052;DHT22;2040;50.924;11.604;2023-07-31T11:08:49;19.70;99.90
4052;DHT22;2040;50.924;11.604;2023-07-31T11:11:17;19.70;99.90
4052;DHT22;2040;50.924;11.604;2023-07-31T11:13:48;19.80;99.90
4052;DHT22;2040;50.924;11.604;2023-07-31T11:16:41;19.80;99.90
4052;DHT22;2040;50.924;11.604;2023-07-31T11:19:08;19.70;99.90
4052;DHT22;2040;50.924;11.604;2023-07-31T11:21:48;19.60;99.90
4052;DHT22;2040;50.924;11.604;2023-07-31T11:24:49;19.60;99.90
4052;DHT22;2040;50.924;11.604;2023-07-31T11:27:15;19.60;99.90
4052;DHT22;2040;50.924;11.604;2023-07-31T11:32:50;19.40;99.90
4052;DHT22;2040;50.924;11.604;2023-07-31T11:35:52;19.40;99.90
4052;DHT22;2040;50.924;11.604;2023-07-31T11:45:17;19.60;99.90
4052;DHT22;2040;50.924;11.604;2023-07-31T11:50:54;19.60;99.90
4052;DHT22;2040;50.924;11.604;2023-07-31T11:53:28;19.50;99.90
4052;DHT22;2040;50.924;11.604;2023-07-31T11:56:14;19.40;99.90
4052;DHT22;2040;50.924;11.604;2023-07-31T11:58:47;19.50;99.90
4052;DHT22;2040;50.924;11.604;2023-07-31T12:01:22;19.50;99.90
4052;DHT22;2040;50.924;11.604;2023-07-31T12:03:51;19.40;99.90
4052;DHT22;2040;50.924;11.604;2023-07-31T12:06:40;19.50;99.90
4052;DHT22;2040;50.924;11.604;2023-07-31T12:09:21;19.60;99.90
4052;DHT22;2040;50.924;11.604;2023-07-31T12:12:08;19.80;99.90
4052;DHT22;2040;50.924;11.604;2023-07-31T12:14:47;19.90;99.90
4052;DHT22;2040;50.924;11.604;2023-07-31T12:17:25;20.20;99.90
4052;DHT22;2040;50.924;11.604;2023-07-31T12:20:00;20.60;99.90
4052;DHT22;2040;50.924;11.604;2023-07-31T12:22:56;20.90;99.90
4052;DHT22;2040;50.924;11.604;2023-07-31T12:25:32;21.10;99.90
4052;DHT22;2040;50.924;11.604;2023-07-31T12:28:04;21.20;99.90
4052;DHT22;2040;50.924;11.604;2023-07-31T12:30:41;21.30;99.90
4052;DHT22;2040;50.924;11.604;2023-07-31T12:33:40;21.40;99.90
4052;DHT22;2040;50.924;11.604;2023-07-31T12:36:36;21.80;99.90
4052;DHT22;2040;50.924;11.604;2023-07-31T12:39:34;21.70;99.90
4052;DHT22;2040;50.924;11.604;2023-07-31T12:42:03;21.90;99.90
4052;DHT22;2040;50.924;11.604;2023-07-31T12:45:08;21.90;99.90
4052;DHT22;2040;50.924;11.604;2023-07-31T12:48:13;21.50;99.90
4052;DHT22;2040;50.924;11.604;2023-07-31T12:50:42;21.30;99.90
4052;DHT22;2040;50.924;11.604;2023-07-31T12:53:23;21.30;99.90
4052;DHT22;2040;50.924;11.604;2023-07-31T12:56:07;21.50;99.90
4052;DHT22;2040;50.924;11.604;2023-07-31T13:05:31;21.60;99.90
4052;DHT22;2040;50.924;11.604;2023-07-31T13:08:08;21.90;99.90
4052;DHT22;2040;50.924;11.604;2023-07-31T13:11:03;22.20;99.90
4052;DHT22;2040;50.924;11.604;2023-07-31T13:13:47;22.80;99.90
4052;DHT22;2040;50.924;11.604;2023-07-31T13:16:32;22.60;99.90
4052;DHT22;2040;50.924;11.604;2023-07-31T13:19:24;22.20;99.90
4052;DHT22;2040;50.924;11.604;2023-07-31T13:21:56;21.90;99.90
4052;DHT22;2040;50.924;11.604;2023-07-31T13:24:24;21.90;99.90
4052;DHT22;2040;50.924;11.604;2023-07-31T13:26:56;21.90;99.90
4052;DHT22;2040;50.924;11.604;2023-07-31T13:29:22;21.80;99.90
4052;DHT22;2040;50.924;11.604;2023-07-31T13:31:50;21.70;99.90
4052;DHT22;2040;50.924;11.604;2023-07-31T13:34:23;21.20;99.90
4052;DHT22;2040;50.924;11.604;2023-07-31T13:36:57;21.00;99.90
4052;DHT22;2040;50.924;11.604;2023-07-31T13:39:32;20.90;99.90
4052;DHT22;2040;50.924;11.604;2023-07-31T13:42:06;20.60;99.90
4052;DHT22;2040;50.924;11.604;2023-07-31T13:44:47;20.40;99.90
4052;DHT22;2040;50.924;11.604;2023-07-31T13:47:28;20.50;99.90
4052;DHT22;2040;50.924;11.604;2023-07-31T13:50:05;20.60;99.90
4052;DHT22;2040;50.924;11.604;2023-07-31T13:52:59;20.70;99.90
4052;DHT22;2040;50.924;11.604;2023-07-31T13:55:42;21.00;99.90
4052;DHT22;2040;50.924;11.604;2023-07-31T13:58:19;21.00;99.90
4052;DHT22;2040;50.924;11.604;2023-07-31T14:00:59;21.00;99.90
4052;DHT22;2040;50.924;11.604;2023-07-31T14:03:46;21.00;99.90
4052;DHT22;2040;50.924;11.604;2023-07-31T14:06:42;20.90;99.90
4052;DHT22;2040;50.924;11.604;2023-07-31T14:09:39;20.80;99.90
4052;DHT22;2040;50.924;11.604;2023-07-31T14:15:00;20.90;99.90
4052;DHT22;2040;50.924;11.604;2023-07-31T14:17:48;20.90;99.90
4052;DHT22;2040;50.924;11.604;2023-07-31T14:20:14;20.90;99.90
4052;DHT22;2040;50.924;11.604;2023-07-31T14:22:42;20.90;99.90
4052;DHT22;2040;50.924;11.604;2023-07-31T14:25:23;21.20;99.90
4052;DHT22;2040;50.924;11.604;2023-07-31T14:28:12;21.50;99.90
4052;DHT22;2040;50.924;11.604;2023-07-31T14:30:40;22.00;99.90
4052;DHT22;2040;50.924;11.604;2023-07-31T14:33:15;21.90;99.90
4052;DHT22;2040;50.924;11.604;2023-07-31T14:35:41;21.80;99.90
4052;DHT22;2040;50.924;11.604;2023-07-31T14:38:06;22.00;99.90
4052;DHT22;2040;50.924;11.604;2023-07-31T14:40:35;22.10;99.90
4052;DHT22;2040;50.924;11.604;2023-07-31T14:43:02;21.90;99.90
4052;DHT22;2040;50.924;11.604;2023-07-31T14:45:27;22.00;99.90
4052;DHT22;2040;50.924;11.604;2023-07-31T14:47:53;22.00;99.90
4052;DHT22;2040;50.924;11.604;2023-07-31T14:50:20;21.90;99.90
4052;DHT22;2040;50.924;11.604;2023-07-31T14:52:47;21.60;99.90
4052;DHT22;2040;50.924;11.604;2023-07-31T14:55:13;21.30;99.90
4052;DHT22;2040;50.924;11.604;2023-07-31T14:57:38;21.10;99.90
4052;DHT22;2040;50.924;11.604;2023-07-31T15:00:04;21.00;99.90
4052;DHT22;2040;50.924;11.604;2023-07-31T15:02:34;21.00;99.90
4052;DHT22;2040;50.924;11.604;2023-07-31T15:05:00;20.90;99.90
4052;DHT22;2040;50.924;11.604;2023-07-31T15:07:25;21.00;99.90
4052;DHT22;2040;50.924;11.604;2023-07-31T15:09:51;21.00;99.90
4052;DHT22;2040;50.924;11.604;2023-07-31T15:12:17;21.00;99.90
4052;DHT22;2040;50.924;11.604;2023-07-31T15:14:43;21.00;99.90
4052;DHT22;2040;50.924;11.604;2023-07-31T15:17:08;21.00;99.90
4052;DHT22;2040;50.924;11.604;2023-07-31T15:19:34;21.00;99.90
4052;DHT22;2040;50.924;11.604;2023-07-31T15:22:02;20.90;99.90
4052;DHT22;2040;50.924;11.604;2023-07-31T15:24:28;20.80;99.90
4052;DHT22;2040;50.924;11.604;2023-07-31T15:26:54;20.80;99.90
4052;DHT22;2040;50.924;11.604;2023-07-31T15:29:20;20.80;99.90
4052;DHT22;2040;50.924;11.604;2023-07-31T15:31:46;20.80;99.90
4052;DHT22;2040;50.924;11.604;2023-07-31T15:34:13;20.70;99.90
4052;DHT22;2040;50.924;11.604;2023-07-31T15:36:39;20.60;99.90
4052;DHT22;2040;50.924;11.604;2023-07-31T15:39:04;20.60;99.90
4052;DHT22;2040;50.924;11.604;2023-07-31T15:41:30;20.50;99.90
4052;DHT22;2040;50.924;11.604;2023-07-31T15:43:56;20.60;99.90
4052;DHT22;2040;50.924;11.604;2023-07-31T15:46:21;20.50;99.90
4052;DHT22;2040;50.924;11.604;2023-07-31T15:48:47;20.50;99.90
4052;DHT22;2040;50.924;11.604;2023-07-31T15:51:13;20.60;99.90
4052;DHT22;2040;50.924;11.604;2023-07-31T15:53:39;20.60;99.90
4052;DHT22;2040;50.924;11.604;2023-07-31T15:56:06;20.50;99.90
4052;DHT22;2040;50.924;11.604;2023-07-31T15:58:31;20.50;99.90
4052;DHT22;2040;50.924;11.604;2023-07-31T16:00:58;20.50;99.90
4052;DHT22;2040;50.924;11.604;2023-07-31T16:03:23;20.50;99.90
4052;DHT22;2040;50.924;11.604;2023-07-31T16:05:49;20.50;99.90
4052;DHT22;2040;50.924;11.604;2023-07-31T16:08:15;20.40;99.90
4052;DHT22;2040;50.924;11.604;2023-07-31T16:10:41;20.40;99.90
4052;DHT22;2040;50.924;11.604;2023-07-31T16:13:06;20.40;99.90
4052;DHT22;2040;50.924;11.604;2023-07-31T16:15:32;20.40;99.90
4052;DHT22;2040;50.924;11.604;2023-07-31T16:17:57;20.40;99.90
4052;DHT22;2040;50.924;11.604;2023-07-31T16:20:23;20.40;99.90
4052;DHT22;2040;50.924;11.604;2023-07-31T16:22:58;20.40;99.90
4052;DHT22;2040;50.924;11.604;2023-07-31T16:25:23;20.30;99.90
4052;DHT22;2040;50.924;11.604;2023-07-31T16:27:49;20.30;99.90